Time;durP1;ratioP1;P1;durP2;ratioP2;P2;SDS_P1;SDS_P2;PMS_P1;PMS_P2;Temp;Humidity;BMP_temperature;BMP_pressure;BME280_temperature;BME280_humidity;BME280_pressure;Samples;Min_cycle;Max_cycle;Signal;HPM_P1;HPM_P2
2021/09/21 06:02:57;;;;;;;4.53;2.50;;;;;;;;;;11779376;22;24462558;-87
2021/09/21 06:08:10;;;;;;;3.88;3.10;;;;;;;;;;12793139;23;20477;-87
2021/09/21 06:13:24;;;;;;;3.92;3.05;;;;;;;;;;12794716;23;20376;-86
2021/09/21 06:18:33;;;;;;;2.80;2.53;;;;;;;;;;12792994;23;20012;-87
2021/09/21 06:24:32;;;;;;;;;;;;;;;;;;;;;
2021/09/21 08:32:06;;;;;;;9.77;6.65;;;;;;;;;;12824612;23;20013;-84
2021/09/21 08:37:42;;;;;;;11.18;6.28;;;;;;;;;;12802212;23;20017;-84
2021/09/21 09:06:06;;;;;;;5.80;4.32;;;;;;;;;;12817661;23;19997;-86
2021/09/21 09:11:44;;;;;;;7.13;4.90;;;;;;;;;;12751302;23;20036;-84
2021/09/21 09:17:13;;;;;;;8.40;4.70;;;;;;;;;;12816590;23;20033;-87
2021/09/21 09:34:14;;;;;;;8.98;7.05;;;;;;;;;;12685457;23;20005;-87
2021/09/21 10:07:39;;;;;;;5.25;3.88;;;;;;;;;;12688091;23;20101;-87
2021/09/21 10:19:06;;;;;;;4.50;3.20;;;;;;;;;;12702340;23;20065;-87
2021/09/21 10:30:22;;;;;;;5.38;3.28;;;;;;;;;;12333318;24;20039;-85
2021/09/21 10:47:18;;;;;;;5.80;3.20;;;;;;;;;;12349704;23;20068;-86
2021/09/21 10:58:46;;;;;;;4.00;2.90;;;;;;;;;;12128861;24;20018;-86
2021/09/21 11:03:48;;;;;;;4.35;3.03;;;;;;;;;;12256268;23;20018;-84
2021/09/21 11:09:08;;;;;;;5.53;3.50;;;;;;;;;;12506672;23;20466;-87
2021/09/21 11:14:30;;;;;;;5.50;2.95;;;;;;;;;;12565480;23;20029;-87
2021/09/21 11:19:40;;;;;;;3.55;2.40;;;;;;;;;;12532496;23;20038;-87
2021/09/21 11:24:48;;;;;;;3.35;2.50;;;;;;;;;;12545312;23;20011;-86
2021/09/21 11:35:47;;;;;;;4.05;2.85;;;;;;;;;;12570617;23;20125;-88
2021/09/21 11:46:56;;;;;;;4.40;2.85;;;;;;;;;;12577657;23;20027;-87
2021/09/21 11:52:17;;;;;;;4.65;3.28;;;;;;;;;;12567426;23;20007;-86
2021/09/21 11:57:50;;;;;;;3.65;2.42;;;;;;;;;;12541958;23;20358;-86
2021/09/21 12:02:52;;;;;;;3.72;2.72;;;;;;;;;;12707024;23;20085;-87
2021/09/21 12:07:54;;;;;;;4.97;2.58;;;;;;;;;;12815260;23;20092;-86
2021/09/21 12:13:06;;;;;;;3.67;2.50;;;;;;;;;;12815840;23;20017;-87
2021/09/21 12:18:09;;;;;;;4.18;2.95;;;;;;;;;;12817677;23;20005;-86
2021/09/21 12:23:11;;;;;;;2.97;2.30;;;;;;;;;;12819906;23;20012;-86
2021/09/21 12:28:15;;;;;;;4.82;2.83;;;;;;;;;;12818538;23;20005;-86
2021/09/21 12:33:17;;;;;;;4.30;2.80;;;;;;;;;;12772575;23;20068;-84
2021/09/21 18:32:38;;;;;;;3.20;2.40;;;;;;;;;;12724275;23;20017;-86
2021/09/21 18:37:40;;;;;;;3.03;2.20;;;;;;;;;;12782528;23;20016;-84
2021/09/21 18:42:41;;;;;;;4.20;2.85;;;;;;;;;;12764487;23;20012;-86
2021/09/21 18:47:43;;;;;;;4.28;2.65;;;;;;;;;;12772110;23;20429;-87
2021/09/21 18:52:45;;;;;;;3.55;2.75;;;;;;;;;;12765506;23;20001;-88
2021/09/21 18:57:47;;;;;;;3.33;2.50;;;;;;;;;;12749437;23;20005;-87
2021/09/21 19:02:51;;;;;;;4.88;2.50;;;;;;;;;;12775751;23;20092;-88
2021/09/21 19:07:54;;;;;;;3.42;2.58;;;;;;;;;;12774112;23;20012;-88
2021/09/21 19:12:55;;;;;;;3.30;2.33;;;;;;;;;;12744003;23;20009;-87
2021/09/21 19:17:57;;;;;;;3.55;2.42;;;;;;;;;;12765252;23;20037;-88
2021/09/21 19:22:59;;;;;;;4.88;2.63;;;;;;;;;;12773090;23;20025;-88
2021/09/21 19:28:01;;;;;;;3.70;2.60;;;;;;;;;;12767685;23;20020;-87
2021/09/21 19:33:02;;;;;;;4.47;2.60;;;;;;;;;;12767943;23;20017;-88
2021/09/21 19:38:03;;;;;;;3.72;2.60;;;;;;;;;;12769640;23;20012;-86
2021/09/21 19:43:04;;;;;;;4.13;2.97;;;;;;;;;;12782866;23;19989;-87
